Terminal Aerodrome Forecast
Issued by NWS Billings, MT

Home | Current Version | Previous Version | Text Only | Print | Product List | Glossary Off
Versions: 1 2 3 4 5 6 7 8 9 10 11 12 13 14 15 16 17 18 19 20 21 22 23 24 25 26

000
FTUS45 KBYZ 262333
TAFMLS
TAF
KMLS 262333Z 2700/2724 VRB06KT P6SM OVC100
     FM270100 29011KT P6SM VCSH BKN025 OVC040
     FM270600 24009KT P6SM SCT025
     FM271600 25011G19KT P6SM FEW025 SCT150=

USA.gov is the U.S. government's official web portal to all federal, state and local government web resources and services.